sensor_id;sensor_type;location;lat;lon;timestamp;pressure;altitude;pressure_sealevel;temperature;humidity
8280;BME280;8335;42.646;23.380;2023-03-13T00:00:02;142050.59;;;1.75;64.87
8280;BME280;8335;42.646;23.380;2023-03-13T00:02:31;142043.19;;;1.72;65.54
8280;BME280;8335;42.646;23.380;2023-03-13T00:04:57;142033.31;;;1.68;65.98
8280;BME280;8335;42.646;23.380;2023-03-13T00:07:25;142022.19;;;1.63;65.39
8280;BME280;8335;42.646;23.380;2023-03-13T00:09:52;142009.91;;;1.58;66.28
8280;BME280;8335;42.646;23.380;2023-03-13T00:12:19;142002.47;;;1.55;66.57
8280;BME280;8335;42.646;23.380;2023-03-13T00:14:46;142002.47;;;1.55;66.69
8280;BME280;8335;42.646;23.380;2023-03-13T00:17:12;141992.63;;;1.51;66.08
8280;BME280;8335;42.646;23.380;2023-03-13T00:19:39;141986.44;;;1.48;66.88
8280;BME280;8335;42.646;23.380;2023-03-13T00:22:06;141997.53;;;1.53;66.31
8280;BME280;8335;42.646;23.380;2023-03-13T00:24:34;141981.50;;;1.46;66.30
8280;BME280;8335;42.646;23.380;2023-03-13T00:27:01;141986.44;;;1.48;66.33
8280;BME280;8335;42.646;23.380;2023-03-13T00:29:29;141971.63;;;1.42;66.16
8280;BME280;8335;42.646;23.380;2023-03-13T00:31:57;141979.03;;;1.45;66.51
8280;BME280;8335;42.646;23.380;2023-03-13T00:34:24;142004.94;;;1.56;66.74
8280;BME280;8335;42.646;23.380;2023-03-13T00:36:52;141996.31;;;1.52;66.46
8280;BME280;8335;42.646;23.380;2023-03-13T00:39:20;141986.44;;;1.48;66.01
8280;BME280;8335;42.646;23.380;2023-03-13T00:41:48;141963.00;;;1.38;66.53
8280;BME280;8335;42.646;23.380;2023-03-13T00:44:15;141981.50;;;1.46;66.71
8280;BME280;8335;42.646;23.380;2023-03-13T00:46:42;141966.69;;;1.40;66.83
8280;BME280;8335;42.646;23.380;2023-03-13T00:49:09;141954.34;;;1.35;66.90
8280;BME280;8335;42.646;23.380;2023-03-13T00:51:36;141956.84;;;1.36;67.15
8280;BME280;8335;42.646;23.380;2023-03-13T00:54:03;141942.06;;;1.30;66.89
8280;BME280;8335;42.646;23.380;2023-03-13T00:56:30;141958.09;;;1.36;67.04
8280;BME280;8335;42.646;23.380;2023-03-13T00:58:58;141942.06;;;1.30;67.20
8280;BME280;8335;42.646;23.380;2023-03-13T01:01:28;141937.09;;;1.28;66.74
8280;BME280;8335;42.646;23.380;2023-03-13T01:03:57;141911.22;;;1.17;67.09
8280;BME280;8335;42.646;23.380;2023-03-13T01:06:25;141886.53;;;1.07;67.40
8280;BME280;8335;42.646;23.380;2023-03-13T01:08:53;141767.00;;;0.58;66.84
8280;BME280;8335;42.646;23.380;2023-03-13T01:11:22;141926.03;;;1.23;67.59
8280;BME280;8335;42.646;23.380;2023-03-13T01:13:52;141911.22;;;1.17;67.32
8280;BME280;8335;42.646;23.380;2023-03-13T01:16:21;141926.03;;;1.23;67.43
8280;BME280;8335;42.646;23.380;2023-03-13T01:18:49;141917.38;;;1.20;67.87
8280;BME280;8335;42.646;23.380;2023-03-13T01:21:18;141892.72;;;1.09;67.68
8280;BME280;8335;42.646;23.380;2023-03-13T01:23:45;141909.97;;;1.17;67.75
8280;BME280;8335;42.646;23.380;2023-03-13T01:26:12;141911.22;;;1.17;67.86
8280;BME280;8335;42.646;23.380;2023-03-13T01:28:39;141908.75;;;1.16;67.70
8280;BME280;8335;42.646;23.380;2023-03-13T01:31:10;141897.63;;;1.12;68.03
8280;BME280;8335;42.646;23.380;2023-03-13T01:33:38;141871.78;;;1.01;67.84
8280;BME280;8335;42.646;23.380;2023-03-13T01:36:06;141877.91;;;1.03;67.98
8280;BME280;8335;42.646;23.380;2023-03-13T01:38:33;141881.59;;;1.05;68.33
8280;BME280;8335;42.646;23.380;2023-03-13T01:41:01;141880.38;;;1.04;68.46
8280;BME280;8335;42.646;23.380;2023-03-13T01:43:29;141718.91;;;0.38;68.88
8280;BME280;8335;42.646;23.380;2023-03-13T01:46:03;141868.03;;;0.99;69.35
8280;BME280;8335;42.646;23.380;2023-03-13T01:48:37;141864.34;;;0.98;69.22
8280;BME280;8335;42.646;23.380;2023-03-13T01:51:10;141869.25;;;1.00;68.88
8280;BME280;8335;42.646;23.380;2023-03-13T01:53:42;141858.19;;;0.95;69.21
8280;BME280;8335;42.646;23.380;2023-03-13T01:56:13;141847.09;;;0.91;69.27
8280;BME280;8335;42.646;23.380;2023-03-13T01:58:42;141828.59;;;0.83;69.77
8280;BME280;8335;42.646;23.380;2023-03-13T02:01:10;141824.91;;;0.81;70.01
8280;BME280;8335;42.646;23.380;2023-03-13T02:03:38;141802.72;;;0.72;70.45
8280;BME280;8335;42.646;23.380;2023-03-13T02:06:07;141813.78;;;0.77;70.58
8280;BME280;8335;42.646;23.380;2023-03-13T02:08:37;141746.00;;;0.49;70.95
8280;BME280;8335;42.646;23.380;2023-03-13T02:11:12;141785.47;;;0.65;70.86
8280;BME280;8335;42.646;23.380;2023-03-13T02:13:41;141787.94;;;0.66;71.16
8280;BME280;8335;42.646;23.380;2023-03-13T02:16:09;141792.84;;;0.68;71.42
8280;BME280;8335;42.646;23.380;2023-03-13T02:18:36;141773.13;;;0.60;71.86
8280;BME280;8335;42.646;23.380;2023-03-13T02:21:10;141774.38;;;0.61;71.96
8280;BME280;8335;42.646;23.380;2023-03-13T02:23:46;141775.59;;;0.61;71.98
8280;BME280;8335;42.646;23.380;2023-03-13T02:26:18;141759.56;;;0.54;72.89
8280;BME280;8335;42.646;23.380;2023-03-13T02:28:45;141754.66;;;0.52;73.10
8280;BME280;8335;42.646;23.380;2023-03-13T02:31:13;141744.78;;;0.48;73.23
8280;BME280;8335;42.646;23.380;2023-03-13T02:33:41;141725.06;;;0.40;73.34
8280;BME280;8335;42.646;23.380;2023-03-13T02:36:08;141710.28;;;0.34;73.90
8280;BME280;8335;42.646;23.380;2023-03-13T02:38:41;141704.13;;;0.32;74.46
8280;BME280;8335;42.646;23.380;2023-03-13T02:41:12;141677.00;;;0.20;74.72
8280;BME280;8335;42.646;23.380;2023-03-13T02:43:40;141672.09;;;0.18;75.55
8280;BME280;8335;42.646;23.380;2023-03-13T02:46:10;141665.94;;;0.16;75.68
8280;BME280;8335;42.646;23.380;2023-03-13T02:48:40;141672.09;;;0.18;76.12
8280;BME280;8335;42.646;23.380;2023-03-13T02:51:13;141678.22;;;0.21;76.14
8280;BME280;8335;42.646;23.380;2023-03-13T02:53:41;141627.75;;;0.00;76.40
8280;BME280;8335;42.646;23.380;2023-03-13T02:56:10;141669.63;;;0.17;76.35
8280;BME280;8335;42.646;23.380;2023-03-13T02:58:40;141659.75;;;0.13;76.44
8280;BME280;8335;42.646;23.380;2023-03-13T03:01:07;141648.69;;;0.09;76.90
8280;BME280;8335;42.646;23.380;2023-03-13T03:03:34;141659.75;;;0.13;77.09
8280;BME280;8335;42.646;23.380;2023-03-13T03:06:03;141617.88;;;-0.04;77.19
8280;BME280;8335;42.646;23.380;2023-03-13T03:08:30;141652.38;;;0.10;77.65
8280;BME280;8335;42.646;23.380;2023-03-13T03:10:57;141656.06;;;0.12;77.59
8280;BME280;8335;42.646;23.380;2023-03-13T03:13:24;141654.84;;;0.11;76.98
8280;BME280;8335;42.646;23.380;2023-03-13T03:15:52;141617.88;;;-0.04;77.11
8280;BME280;8335;42.646;23.380;2023-03-13T03:18:19;141582.16;;;-0.19;77.84
8280;BME280;8335;42.646;23.380;2023-03-13T03:20:46;141578.47;;;-0.20;78.10
8280;BME280;8335;42.646;23.380;2023-03-13T03:23:12;141573.53;;;-0.22;78.03
8280;BME280;8335;42.646;23.380;2023-03-13T03:25:39;141564.94;;;-0.26;77.87
8280;BME280;8335;42.646;23.380;2023-03-13T03:28:06;141531.69;;;-0.40;78.28
8280;BME280;8335;42.646;23.380;2023-03-13T03:30:32;141528.00;;;-0.41;78.52
8280;BME280;8335;42.646;23.380;2023-03-13T03:33:03;141509.53;;;-0.49;78.80
8280;BME280;8335;42.646;23.380;2023-03-13T03:35:29;141494.75;;;-0.55;78.60
8280;BME280;8335;42.646;23.380;2023-03-13T03:37:58;141510.75;;;-0.48;79.22
8280;BME280;8335;42.646;23.380;2023-03-13T03:40:25;141509.53;;;-0.49;79.17
8280;BME280;8335;42.646;23.380;2023-03-13T03:42:52;141513.22;;;-0.47;79.42
8280;BME280;8335;42.646;23.380;2023-03-13T03:45:19;141515.66;;;-0.46;79.33
8280;BME280;8335;42.646;23.380;2023-03-13T03:47:45;141523.03;;;-0.43;79.34
8280;BME280;8335;42.646;23.380;2023-03-13T03:50:14;141507.06;;;-0.50;79.78
8280;BME280;8335;42.646;23.380;2023-03-13T03:52:40;141503.34;;;-0.51;80.02
8280;BME280;8335;42.646;23.380;2023-03-13T03:55:08;141498.44;;;-0.53;80.58
8280;BME280;8335;42.646;23.380;2023-03-13T03:57:35;141497.19;;;-0.54;80.87
8280;BME280;8335;42.646;23.380;2023-03-13T04:00:02;141492.28;;;-0.56;80.91
8280;BME280;8335;42.646;23.380;2023-03-13T04:02:29;141495.97;;;-0.54;80.86
8280;BME280;8335;42.646;23.380;2023-03-13T04:04:56;141493.53;;;-0.56;81.33
8280;BME280;8335;42.646;23.380;2023-03-13T04:07:24;141478.75;;;-0.62;81.05
8280;BME280;8335;42.646;23.380;2023-03-13T04:09:51;141477.50;;;-0.62;80.93
8280;BME280;8335;42.646;23.380;2023-03-13T04:12:17;141446.72;;;-0.75;81.21
8280;BME280;8335;42.646;23.380;2023-03-13T04:14:44;141424.56;;;-0.84;81.53
8280;BME280;8335;42.646;23.380;2023-03-13T04:17:11;141429.50;;;-0.82;81.95
8280;BME280;8335;42.646;23.380;2023-03-13T04:19:38;141433.19;;;-0.80;82.24
8280;BME280;8335;42.646;23.380;2023-03-13T04:22:04;141429.50;;;-0.82;82.47
8280;BME280;8335;42.646;23.380;2023-03-13T04:24:32;141438.13;;;-0.78;82.91
8280;BME280;8335;42.646;23.380;2023-03-13T04:26:59;141444.28;;;-0.76;82.73
8280;BME280;8335;42.646;23.380;2023-03-13T04:29:27;141449.19;;;-0.74;82.71
8280;BME280;8335;42.646;23.380;2023-03-13T04:31:54;141447.94;;;-0.74;82.42
8280;BME280;8335;42.646;23.380;2023-03-13T04:34:21;141441.81;;;-0.77;82.65
8280;BME280;8335;42.646;23.380;2023-03-13T04:36:48;141439.34;;;-0.78;83.05
8280;BME280;8335;42.646;23.380;2023-03-13T04:39:14;141445.50;;;-0.75;83.30
8280;BME280;8335;42.646;23.380;2023-03-13T04:41:42;141447.94;;;-0.74;83.18
8280;BME280;8335;42.646;23.380;2023-03-13T04:44:09;141445.50;;;-0.75;83.21
8280;BME280;8335;42.646;23.380;2023-03-13T04:46:36;141440.59;;;-0.77;83.90
8280;BME280;8335;42.646;23.380;2023-03-13T04:49:03;141436.84;;;-0.79;84.01
8280;BME280;8335;42.646;23.380;2023-03-13T04:51:29;141457.81;;;-0.70;84.11
8280;BME280;8335;42.646;23.380;2023-03-13T04:53:56;141454.09;;;-0.72;84.12
8280;BME280;8335;42.646;23.380;2023-03-13T04:56:24;141449.19;;;-0.74;84.38
8280;BME280;8335;42.646;23.380;2023-03-13T04:58:53;141476.28;;;-0.63;84.75
8280;BME280;8335;42.646;23.380;2023-03-13T05:01:20;141482.41;;;-0.60;85.21
8280;BME280;8335;42.646;23.380;2023-03-13T05:03:46;141509.53;;;-0.49;85.42
8280;BME280;8335;42.646;23.380;2023-03-13T05:06:13;141524.31;;;-0.43;85.05
8280;BME280;8335;42.646;23.380;2023-03-13T05:08:40;141542.78;;;-0.35;84.97
8280;BME280;8335;42.646;23.380;2023-03-13T05:11:06;141558.78;;;-0.29;84.86
8280;BME280;8335;42.646;23.380;2023-03-13T05:13:33;141566.16;;;-0.25;84.93
8280;BME280;8335;42.646;23.380;2023-03-13T05:16:02;141576.03;;;-0.21;84.83
8280;BME280;8335;42.646;23.380;2023-03-13T05:18:28;141593.28;;;-0.14;84.65
8280;BME280;8335;42.646;23.380;2023-03-13T05:20:55;141616.66;;;-0.05;84.10
8280;BME280;8335;42.646;23.380;2023-03-13T05:23:22;141627.75;;;0.00;83.26
8280;BME280;8335;42.646;23.380;2023-03-13T05:25:49;141612.97;;;-0.06;82.16
8280;BME280;8335;42.646;23.380;2023-03-13T05:28:15;141624.03;;;-0.02;82.42
8280;BME280;8335;42.646;23.380;2023-03-13T05:30:42;141651.16;;;0.10;81.69
8280;BME280;8335;42.646;23.380;2023-03-13T05:33:10;141632.69;;;0.02;81.42
8280;BME280;8335;42.646;23.380;2023-03-13T05:35:37;141664.72;;;0.15;80.80
8280;BME280;8335;42.646;23.380;2023-03-13T05:38:04;141677.00;;;0.20;80.81
8280;BME280;8335;42.646;23.380;2023-03-13T05:40:30;141693.03;;;0.27;80.60
8280;BME280;8335;42.646;23.380;2023-03-13T05:42:57;141713.97;;;0.36;80.02
8280;BME280;8335;42.646;23.380;2023-03-13T05:45:24;141738.63;;;0.46;79.97
8280;BME280;8335;42.646;23.380;2023-03-13T05:47:51;141753.44;;;0.52;79.73
8280;BME280;8335;42.646;23.380;2023-03-13T05:50:19;141775.59;;;0.61;78.45
8280;BME280;8335;42.646;23.380;2023-03-13T05:52:46;141799.00;;;0.71;77.82
8280;BME280;8335;42.646;23.380;2023-03-13T05:55:12;141807.66;;;0.74;76.58
8280;BME280;8335;42.646;23.380;2023-03-13T05:57:43;141832.28;;;0.85;76.35
8280;BME280;8335;42.646;23.380;2023-03-13T06:00:11;141843.41;;;0.89;76.21
8280;BME280;8335;42.646;23.380;2023-03-13T06:02:38;141865.56;;;0.98;76.50
8280;BME280;8335;42.646;23.380;2023-03-13T06:05:05;141881.59;;;1.05;76.35
8280;BME280;8335;42.646;23.380;2023-03-13T06:07:33;141886.53;;;1.07;75.71
8280;BME280;8335;42.646;23.380;2023-03-13T06:10:00;141887.81;;;1.07;75.50
8280;BME280;8335;42.646;23.380;2023-03-13T06:12:27;141916.13;;;1.19;76.56
8280;BME280;8335;42.646;23.380;2023-03-13T06:14:54;142082.66;;;1.88;75.38
8280;BME280;8335;42.646;23.380;2023-03-13T06:17:20;142437.00;;;3.34;68.86
8280;BME280;8335;42.646;23.380;2023-03-13T06:19:47;142909.38;;;5.29;62.27
8280;BME280;8335;42.646;23.380;2023-03-13T06:22:15;143414.84;;;7.36;53.85
8280;BME280;8335;42.646;23.380;2023-03-13T06:24:43;143895.09;;;9.33;47.22
8280;BME280;8335;42.646;23.380;2023-03-13T06:27:13;144183.41;;;10.52;42.90
8280;BME280;8335;42.646;23.380;2023-03-13T06:29:40;144466.94;;;11.68;39.30
8280;BME280;8335;42.646;23.380;2023-03-13T06:32:06;144790.66;;;13.00;36.76
8280;BME280;8335;42.646;23.380;2023-03-13T06:34:33;145068.56;;;14.14;34.64
8280;BME280;8335;42.646;23.380;2023-03-13T06:37:00;145321.78;;;15.17;32.54
8280;BME280;8335;42.646;23.380;2023-03-13T06:39:27;145571.44;;;16.19;31.29
8280;BME280;8335;42.646;23.380;2023-03-13T06:41:55;145826.34;;;17.23;29.48
8280;BME280;8335;42.646;23.380;2023-03-13T06:44:22;145966.38;;;17.80;27.67
8280;BME280;8335;42.646;23.380;2023-03-13T06:46:48;146183.97;;;18.68;26.83
8280;BME280;8335;42.646;23.380;2023-03-13T06:49:15;146257.78;;;18.98;25.81
8280;BME280;8335;42.646;23.380;2023-03-13T06:51:42;146421.81;;;19.65;24.99
8280;BME280;8335;42.646;23.380;2023-03-13T06:54:09;146584.56;;;20.31;24.33
8280;BME280;8335;42.646;23.380;2023-03-13T06:56:35;146755.00;;;21.01;23.45
8280;BME280;8335;42.646;23.380;2023-03-13T06:59:03;146797.56;;;21.18;23.07
8280;BME280;8335;42.646;23.380;2023-03-13T07:01:30;146756.25;;;21.01;23.13
8280;BME280;8335;42.646;23.380;2023-03-13T07:03:57;146627.19;;;20.49;23.28
8280;BME280;8335;42.646;23.380;2023-03-13T07:06:24;146381.66;;;19.49;24.07
8280;BME280;8335;42.646;23.380;2023-03-13T07:08:51;146411.78;;;19.61;24.73
8280;BME280;8335;42.646;23.380;2023-03-13T07:11:18;146473.13;;;19.86;24.38
8280;BME280;8335;42.646;23.380;2023-03-13T07:13:45;146663.50;;;20.64;23.67
8280;BME280;8335;42.646;23.380;2023-03-13T07:16:13;146826.47;;;21.30;23.09
8280;BME280;8335;42.646;23.380;2023-03-13T07:18:40;146980.63;;;21.92;22.56
8280;BME280;8335;42.646;23.380;2023-03-13T07:21:09;147076.00;;;22.31;21.58
8280;BME280;8335;42.646;23.380;2023-03-13T07:23:36;147155.00;;;22.63;21.28
8280;BME280;8335;42.646;23.380;2023-03-13T07:26:05;147084.75;;;22.35;21.75
8280;BME280;8335;42.646;23.380;2023-03-13T07:28:32;147022.06;;;22.09;22.31
8280;BME280;8335;42.646;23.380;2023-03-13T07:31:04;146752.44;;;21.00;22.87
8280;BME280;8335;42.646;23.380;2023-03-13T07:33:32;146509.44;;;20.01;24.29
8280;BME280;8335;42.646;23.380;2023-03-13T07:35:59;146465.59;;;19.83;24.36
8280;BME280;8335;42.646;23.380;2023-03-13T07:38:26;146399.19;;;19.56;25.08
8280;BME280;8335;42.646;23.380;2023-03-13T07:40:54;146287.81;;;19.11;25.55
8280;BME280;8335;42.646;23.380;2023-03-13T07:43:21;146107.66;;;18.37;26.39
8280;BME280;8335;42.646;23.380;2023-03-13T07:45:52;146061.38;;;18.19;26.27
8280;BME280;8335;42.646;23.380;2023-03-13T07:48:20;146093.88;;;18.32;26.19
8280;BME280;8335;42.646;23.380;2023-03-13T07:50:49;146101.38;;;18.35;26.76
8280;BME280;8335;42.646;23.380;2023-03-13T07:53:16;146063.84;;;18.20;26.97
8280;BME280;8335;42.646;23.380;2023-03-13T07:55:56;146133.91;;;18.48;26.54
8280;BME280;8335;42.646;23.380;2023-03-13T07:58:24;146068.91;;;18.22;26.42
8280;BME280;8335;42.646;23.380;2023-03-13T08:00:51;145947.63;;;17.72;26.83
8280;BME280;8335;42.646;23.380;2023-03-13T08:03:18;145818.81;;;17.20;27.81
8280;BME280;8335;42.646;23.380;2023-03-13T08:05:46;145600.19;;;16.31;28.40
8280;BME280;8335;42.646;23.380;2023-03-13T08:08:14;145686.38;;;16.66;28.46
8280;BME280;8335;42.646;23.380;2023-03-13T08:10:41;145773.84;;;17.01;28.03
8280;BME280;8335;42.646;23.380;2023-03-13T08:13:07;145861.31;;;17.37;28.30
8280;BME280;8335;42.646;23.380;2023-03-13T08:15:34;146032.59;;;18.07;27.23
8280;BME280;8335;42.646;23.380;2023-03-13T08:18:01;146217.75;;;18.82;26.57
8280;BME280;8335;42.646;23.380;2023-03-13T08:20:27;146362.91;;;19.41;25.99
8280;BME280;8335;42.646;23.380;2023-03-13T08:22:55;146426.81;;;19.67;25.46
8280;BME280;8335;42.646;23.380;2023-03-13T08:25:24;146409.28;;;19.60;25.64
8280;BME280;8335;42.646;23.380;2023-03-13T08:27:50;146325.34;;;19.26;25.19
8280;BME280;8335;42.646;23.380;2023-03-13T08:30:17;146205.25;;;18.77;26.29
8280;BME280;8335;42.646;23.380;2023-03-13T08:32:44;146182.72;;;18.68;25.87
8280;BME280;8335;42.646;23.380;2023-03-13T08:35:11;146208.97;;;18.79;25.61
8280;BME280;8335;42.646;23.380;2023-03-13T08:37:41;146319.13;;;19.23;25.82
8280;BME280;8335;42.646;23.380;2023-03-13T08:40:09;146357.91;;;19.39;25.58
8280;BME280;8335;42.646;23.380;2023-03-13T08:42:38;146331.59;;;19.29;25.72
8280;BME280;8335;42.646;23.380;2023-03-13T08:45:06;146292.81;;;19.13;26.17
8280;BME280;8335;42.646;23.380;2023-03-13T08:47:33;146266.56;;;19.02;25.47
8280;BME280;8335;42.646;23.380;2023-03-13T08:49:59;146147.66;;;18.54;26.31
8280;BME280;8335;42.646;23.380;2023-03-13T08:52:26;146060.13;;;18.18;26.91
8280;BME280;8335;42.646;23.380;2023-03-13T08:54:53;146037.63;;;18.09;27.14
8280;BME280;8335;42.646;23.380;2023-03-13T08:57:20;145931.31;;;17.66;26.92
8280;BME280;8335;42.646;23.380;2023-03-13T08:59:48;145765.09;;;16.98;28.02
8280;BME280;8335;42.646;23.380;2023-03-13T09:02:17;145762.59;;;16.97;28.37
8280;BME280;8335;42.646;23.380;2023-03-13T09:04:48;145766.34;;;16.98;28.45
8280;BME280;8335;42.646;23.380;2023-03-13T09:07:14;145865.06;;;17.39;28.58
8280;BME280;8335;42.646;23.380;2023-03-13T09:09:42;145851.31;;;17.33;28.06
8280;BME280;8335;42.646;23.380;2023-03-13T09:12:09;145920.06;;;17.61;27.42
8280;BME280;8335;42.646;23.380;2023-03-13T09:14:36;146103.88;;;18.36;26.93
8280;BME280;8335;42.646;23.380;2023-03-13T09:17:05;146128.91;;;18.46;25.89
8280;BME280;8335;42.646;23.380;2023-03-13T09:19:32;145998.88;;;17.93;26.63
8280;BME280;8335;42.646;23.380;2023-03-13T09:21:58;145945.06;;;17.71;26.81
8280;BME280;8335;42.646;23.380;2023-03-13T09:24:25;145882.56;;;17.46;26.97
8280;BME280;8335;42.646;23.380;2023-03-13T09:26:52;145786.31;;;17.06;27.71
8280;BME280;8335;42.646;23.380;2023-03-13T09:29:20;145757.63;;;16.95;28.01
8280;BME280;8335;42.646;23.380;2023-03-13T09:31:47;145681.34;;;16.64;27.95
8280;BME280;8335;42.646;23.380;2023-03-13T09:34:15;145658.88;;;16.55;28.29
8280;BME280;8335;42.646;23.380;2023-03-13T09:36:41;145668.88;;;16.59;28.90
8280;BME280;8335;42.646;23.380;2023-03-13T09:39:08;145578.97;;;16.22;29.13
8280;BME280;8335;42.646;23.380;2023-03-13T09:41:38;145515.28;;;15.96;29.60
8280;BME280;8335;42.646;23.380;2023-03-13T09:44:12;145600.19;;;16.31;29.32
8280;BME280;8335;42.646;23.380;2023-03-13T09:46:44;145653.88;;;16.52;29.65
8280;BME280;8335;42.646;23.380;2023-03-13T09:49:26;145620.16;;;16.39;29.72
8280;BME280;8335;42.646;23.380;2023-03-13T09:52:01;145755.13;;;16.94;28.99
8280;BME280;8335;42.646;23.380;2023-03-13T09:54:33;145786.31;;;17.06;28.99
8280;BME280;8335;42.646;23.380;2023-03-13T09:57:06;145672.63;;;16.60;29.18
8280;BME280;8335;42.646;23.380;2023-03-13T09:59:46;145596.44;;;16.29;30.19
8280;BME280;8335;42.646;23.380;2023-03-13T10:02:28;145572.69;;;16.19;29.65
8280;BME280;8335;42.646;23.380;2023-03-13T10:05:02;145562.72;;;16.15;29.66
8280;BME280;8335;42.646;23.380;2023-03-13T10:07:31;145475.34;;;15.80;29.23
8280;BME280;8335;42.646;23.380;2023-03-13T10:09:59;145371.72;;;15.37;30.55
8280;BME280;8335;42.646;23.380;2023-03-13T10:12:27;145535.25;;;16.04;29.48
8280;BME280;8335;42.646;23.380;2023-03-13T10:15:15;145718.91;;;16.79;29.33
8280;BME280;8335;42.646;23.380;2023-03-13T10:17:43;145831.31;;;17.25;28.62
8280;BME280;8335;42.646;23.380;2023-03-13T10:20:22;145877.56;;;17.44;28.02
8280;BME280;8335;42.646;23.380;2023-03-13T10:22:50;145838.78;;;17.28;27.68
8280;BME280;8335;42.646;23.380;2023-03-13T10:25:30;145786.31;;;17.06;28.25
8280;BME280;8335;42.646;23.380;2023-03-13T10:27:57;145737.63;;;16.87;28.59
8280;BME280;8335;42.646;23.380;2023-03-13T10:30:27;145700.13;;;16.71;28.02
8280;BME280;8335;42.646;23.380;2023-03-13T10:32:58;145701.41;;;16.72;28.51
8280;BME280;8335;42.646;23.380;2023-03-13T10:35:32;145787.56;;;17.07;28.12
8280;BME280;8335;42.646;23.380;2023-03-13T10:38:02;145785.06;;;17.06;27.96
8280;BME280;8335;42.646;23.380;2023-03-13T10:40:29;145687.59;;;16.66;28.66
8280;BME280;8335;42.646;23.380;2023-03-13T10:43:02;145778.84;;;17.03;28.18
8280;BME280;8335;42.646;23.380;2023-03-13T10:45:32;145818.81;;;17.20;28.52
8280;BME280;8335;42.646;23.380;2023-03-13T10:48:01;145760.09;;;16.96;28.37
8280;BME280;8335;42.646;23.380;2023-03-13T10:50:33;145820.06;;;17.20;28.04
8280;BME280;8335;42.646;23.380;2023-03-13T10:53:16;145795.09;;;17.10;28.30
8280;BME280;8335;42.646;23.380;2023-03-13T10:55:45;145733.84;;;16.85;29.15
8280;BME280;8335;42.646;23.380;2023-03-13T10:58:17;145721.38;;;16.80;29.35
8280;BME280;8335;42.646;23.380;2023-03-13T11:00:46;145515.28;;;15.96;29.78
8280;BME280;8335;42.646;23.380;2023-03-13T11:03:16;145522.75;;;15.99;30.07
8280;BME280;8335;42.646;23.380;2023-03-13T11:05:54;145451.59;;;15.70;30.67
8280;BME280;8335;42.646;23.380;2023-03-13T11:08:23;145425.38;;;15.59;30.87
8280;BME280;8335;42.646;23.380;2023-03-13T11:10:53;145401.63;;;15.50;30.66
8280;BME280;8335;42.646;23.380;2023-03-13T11:13:33;145335.53;;;15.23;30.43
8280;BME280;8335;42.646;23.380;2023-03-13T11:16:08;145178.38;;;14.58;31.58
8280;BME280;8335;42.646;23.380;2023-03-13T11:18:43;145152.16;;;14.48;31.66
8280;BME280;8335;42.646;23.380;2023-03-13T11:21:23;145137.13;;;14.42;31.49
8280;BME280;8335;42.646;23.380;2023-03-13T11:23:58;145022.47;;;13.95;32.17
8280;BME280;8335;42.646;23.380;2023-03-13T11:26:33;145158.41;;;14.50;32.06
8280;BME280;8335;42.646;23.380;2023-03-13T11:29:05;145066.06;;;14.13;32.76
8280;BME280;8335;42.646;23.380;2023-03-13T11:31:38;145049.84;;;14.06;33.05
8280;BME280;8335;42.646;23.380;2023-03-13T11:34:13;145007.50;;;13.89;32.63
8280;BME280;8335;42.646;23.380;2023-03-13T11:36:51;144927.72;;;13.56;33.02
8280;BME280;8335;42.646;23.380;2023-03-13T11:39:35;144904.06;;;13.46;33.01
8280;BME280;8335;42.646;23.380;2023-03-13T11:42:11;144837.97;;;13.19;34.13
8280;BME280;8335;42.646;23.380;2023-03-13T11:44:47;144831.75;;;13.17;34.17
8280;BME280;8335;42.646;23.380;2023-03-13T11:47:39;144844.28;;;13.22;34.92
8280;BME280;8335;42.646;23.380;2023-03-13T11:50:17;144796.88;;;13.03;35.38
8280;BME280;8335;42.646;23.380;2023-03-13T11:53:15;144747.06;;;12.82;35.31
8280;BME280;8335;42.646;23.380;2023-03-13T11:55:55;144742.09;;;12.80;36.36
8280;BME280;8335;42.646;23.380;2023-03-13T11:58:57;144738.38;;;12.79;36.66
8280;BME280;8335;42.646;23.380;2023-03-13T12:01:31;144727.16;;;12.74;35.58
8280;BME280;8335;42.646;23.380;2023-03-13T12:04:03;144722.19;;;12.72;36.31
8280;BME280;8335;42.646;23.380;2023-03-13T12:06:33;144720.94;;;12.72;35.99
8280;BME280;8335;42.646;23.380;2023-03-13T12:09:05;144700.97;;;12.63;35.71
8280;BME280;8335;42.646;23.380;2023-03-13T12:11:39;144696.00;;;12.61;35.07
8280;BME280;8335;42.646;23.380;2023-03-13T12:14:12;144681.06;;;12.55;35.06
8280;BME280;8335;42.646;23.380;2023-03-13T12:16:43;144676.09;;;12.53;35.30
8280;BME280;8335;42.646;23.380;2023-03-13T12:19:15;144691.03;;;12.59;35.75
8280;BME280;8335;42.646;23.380;2023-03-13T12:21:46;144719.66;;;12.71;36.13
8280;BME280;8335;42.646;23.380;2023-03-13T12:24:22;144704.75;;;12.65;37.13
8280;BME280;8335;42.646;23.380;2023-03-13T12:26:56;144644.94;;;12.40;36.05
8280;BME280;8335;42.646;23.380;2023-03-13T12:29:36;144598.91;;;12.22;36.86
8280;BME280;8335;42.646;23.380;2023-03-13T12:32:10;144555.34;;;12.04;37.76
8280;BME280;8335;42.646;23.380;2023-03-13T12:34:52;144567.78;;;12.09;37.80
8280;BME280;8335;42.646;23.380;2023-03-13T12:37:26;144560.31;;;12.06;37.40
8280;BME280;8335;42.646;23.380;2023-03-13T12:39:57;144591.44;;;12.19;38.08
8280;BME280;8335;42.646;23.380;2023-03-13T12:42:35;144587.69;;;12.17;36.53
8280;BME280;8335;42.646;23.380;2023-03-13T12:45:06;144577.72;;;12.13;36.92
8280;BME280;8335;42.646;23.380;2023-03-13T12:47:42;144557.81;;;12.05;37.81
8280;BME280;8335;42.646;23.380;2023-03-13T12:50:29;144542.88;;;11.99;37.27
8280;BME280;8335;42.646;23.380;2023-03-13T12:53:17;144544.13;;;11.99;37.11
8280;BME280;8335;42.646;23.380;2023-03-13T12:55:59;144539.16;;;11.97;38.33
8280;BME280;8335;42.646;23.380;2023-03-13T12:58:41;144542.88;;;11.99;37.42
8280;BME280;8335;42.646;23.380;2023-03-13T13:01:15;144545.34;;;12.00;37.85
8280;BME280;8335;42.646;23.380;2023-03-13T13:03:51;144532.94;;;11.95;38.10
8280;BME280;8335;42.646;23.380;2023-03-13T13:06:18;144514.28;;;11.87;37.50
8280;BME280;8335;42.646;23.380;2023-03-13T13:08:48;144522.97;;;11.91;39.14
8280;BME280;8335;42.646;23.380;2023-03-13T13:11:56;144565.31;;;12.08;37.76
8280;BME280;8335;42.646;23.380;2023-03-13T13:14:57;144516.75;;;11.88;38.08